sensor_id;sensor_type;location;lat;lon;timestamp;P1;durP1;ratioP1;P2;durP2;ratioP2
8889;SDS011;4481;43.406;24.454;2022-12-18T00:02:21;18.27;;;13.03;;
8889;SDS011;4481;43.406;24.454;2022-12-18T00:04:47;18.50;;;12.93;;
8889;SDS011;4481;43.406;24.454;2022-12-18T00:07:14;21.93;;;14.33;;
8889;SDS011;4481;43.406;24.454;2022-12-18T00:09:40;21.47;;;14.43;;
8889;SDS011;4481;43.406;24.454;2022-12-18T00:12:06;18.77;;;13.23;;
8889;SDS011;4481;43.406;24.454;2022-12-18T00:14:33;19.70;;;12.90;;
8889;SDS011;4481;43.406;24.454;2022-12-18T00:16:59;16.43;;;11.87;;
8889;SDS011;4481;43.406;24.454;2022-12-18T00:19:25;18.70;;;12.83;;
8889;SDS011;4481;43.406;24.454;2022-12-18T00:21:52;20.83;;;13.60;;
8889;SDS011;4481;43.406;24.454;2022-12-18T00:24:18;18.73;;;13.07;;
8889;SDS011;4481;43.406;24.454;2022-12-18T00:26:44;18.87;;;13.33;;
8889;SDS011;4481;43.406;24.454;2022-12-18T00:29:11;18.03;;;13.50;;
8889;SDS011;4481;43.406;24.454;2022-12-18T00:31:39;17.70;;;12.97;;
8889;SDS011;4481;43.406;24.454;2022-12-18T00:34:05;19.33;;;12.30;;
8889;SDS011;4481;43.406;24.454;2022-12-18T00:36:32;20.60;;;13.20;;
8889;SDS011;4481;43.406;24.454;2022-12-18T00:39:00;20.70;;;12.63;;
8889;SDS011;4481;43.406;24.454;2022-12-18T00:41:28;19.13;;;12.67;;
8889;SDS011;4481;43.406;24.454;2022-12-18T00:44:14;17.57;;;12.73;;
8889;SDS011;4481;43.406;24.454;2022-12-18T00:46:41;21.47;;;13.83;;
8889;SDS011;4481;43.406;24.454;2022-12-18T00:49:08;17.70;;;12.53;;
8889;SDS011;4481;43.406;24.454;2022-12-18T00:51:35;16.03;;;12.43;;
8889;SDS011;4481;43.406;24.454;2022-12-18T00:54:01;20.80;;;13.93;;
8889;SDS011;4481;43.406;24.454;2022-12-18T00:56:27;18.37;;;13.20;;
8889;SDS011;4481;43.406;24.454;2022-12-18T00:58:53;16.50;;;12.77;;
8889;SDS011;4481;43.406;24.454;2022-12-18T01:01:20;18.20;;;11.83;;
8889;SDS011;4481;43.406;24.454;2022-12-18T01:03:46;15.67;;;11.83;;
8889;SDS011;4481;43.406;24.454;2022-12-18T01:06:13;16.70;;;11.67;;
8889;SDS011;4481;43.406;24.454;2022-12-18T01:08:41;15.47;;;11.43;;
8889;SDS011;4481;43.406;24.454;2022-12-18T01:11:07;15.50;;;12.03;;
8889;SDS011;4481;43.406;24.454;2022-12-18T01:13:35;14.57;;;12.20;;
8889;SDS011;4481;43.406;24.454;2022-12-18T01:16:01;15.57;;;11.60;;
8889;SDS011;4481;43.406;24.454;2022-12-18T01:18:29;21.73;;;12.30;;
8889;SDS011;4481;43.406;24.454;2022-12-18T01:20:55;17.33;;;12.13;;
8889;SDS011;4481;43.406;24.454;2022-12-18T01:23:22;18.57;;;12.03;;
8889;SDS011;4481;43.406;24.454;2022-12-18T01:25:52;15.90;;;12.03;;
8889;SDS011;4481;43.406;24.454;2022-12-18T01:28:18;14.07;;;10.73;;
8889;SDS011;4481;43.406;24.454;2022-12-18T01:30:44;13.17;;;10.03;;
8889;SDS011;4481;43.406;24.454;2022-12-18T01:33:10;12.63;;;10.60;;
8889;SDS011;4481;43.406;24.454;2022-12-18T01:35:40;15.37;;;10.93;;
8889;SDS011;4481;43.406;24.454;2022-12-18T01:38:07;18.53;;;11.07;;
8889;SDS011;4481;43.406;24.454;2022-12-18T01:40:33;12.33;;;10.93;;
8889;SDS011;4481;43.406;24.454;2022-12-18T01:42:59;15.60;;;12.37;;
8889;SDS011;4481;43.406;24.454;2022-12-18T01:45:26;16.83;;;11.13;;
8889;SDS011;4481;43.406;24.454;2022-12-18T01:47:54;20.50;;;15.30;;
8889;SDS011;4481;43.406;24.454;2022-12-18T01:50:23;16.17;;;12.33;;
8889;SDS011;4481;43.406;24.454;2022-12-18T01:52:53;18.70;;;13.73;;
8889;SDS011;4481;43.406;24.454;2022-12-18T01:55:23;17.00;;;11.27;;
8889;SDS011;4481;43.406;24.454;2022-12-18T01:57:54;13.17;;;11.33;;
8889;SDS011;4481;43.406;24.454;2022-12-18T02:00:23;14.27;;;11.23;;
8889;SDS011;4481;43.406;24.454;2022-12-18T02:02:51;16.60;;;12.27;;
8889;SDS011;4481;43.406;24.454;2022-12-18T02:05:18;13.70;;;11.30;;
8889;SDS011;4481;43.406;24.454;2022-12-18T02:07:51;16.77;;;11.03;;
8889;SDS011;4481;43.406;24.454;2022-12-18T02:10:27;12.07;;;10.83;;
8889;SDS011;4481;43.406;24.454;2022-12-18T02:13:00;18.77;;;12.63;;
8889;SDS011;4481;43.406;24.454;2022-12-18T02:15:38;14.20;;;11.40;;
8889;SDS011;4481;43.406;24.454;2022-12-18T02:18:10;21.20;;;12.57;;
8889;SDS011;4481;43.406;24.454;2022-12-18T02:20:41;13.33;;;11.10;;
8889;SDS011;4481;43.406;24.454;2022-12-18T02:23:16;17.03;;;12.30;;
8889;SDS011;4481;43.406;24.454;2022-12-18T02:26:02;13.60;;;11.67;;
8889;SDS011;4481;43.406;24.454;2022-12-18T02:28:35;15.17;;;11.37;;
8889;SDS011;4481;43.406;24.454;2022-12-18T02:31:07;16.43;;;11.30;;
8889;SDS011;4481;43.406;24.454;2022-12-18T02:33:39;19.93;;;13.30;;
8889;SDS011;4481;43.406;24.454;2022-12-18T02:36:07;18.00;;;12.53;;
8889;SDS011;4481;43.406;24.454;2022-12-18T02:38:35;18.67;;;12.97;;
8889;SDS011;4481;43.406;24.454;2022-12-18T02:41:03;17.83;;;14.10;;
8889;SDS011;4481;43.406;24.454;2022-12-18T02:43:31;18.93;;;14.83;;
8889;SDS011;4481;43.406;24.454;2022-12-18T02:45:58;18.77;;;14.30;;
8889;SDS011;4481;43.406;24.454;2022-12-18T02:48:25;18.90;;;15.47;;
8889;SDS011;4481;43.406;24.454;2022-12-18T02:50:57;24.50;;;15.50;;
8889;SDS011;4481;43.406;24.454;2022-12-18T02:53:30;20.07;;;15.67;;
8889;SDS011;4481;43.406;24.454;2022-12-18T02:56:03;26.37;;;16.10;;
8889;SDS011;4481;43.406;24.454;2022-12-18T02:58:38;28.63;;;18.13;;
8889;SDS011;4481;43.406;24.454;2022-12-18T03:01:14;26.80;;;18.13;;
8889;SDS011;4481;43.406;24.454;2022-12-18T03:03:46;25.00;;;18.00;;
8889;SDS011;4481;43.406;24.454;2022-12-18T03:06:18;23.17;;;16.20;;
8889;SDS011;4481;43.406;24.454;2022-12-18T03:08:49;26.57;;;17.47;;
8889;SDS011;4481;43.406;24.454;2022-12-18T03:11:23;21.97;;;16.53;;
8889;SDS011;4481;43.406;24.454;2022-12-18T03:14:06;30.13;;;17.37;;
8889;SDS011;4481;43.406;24.454;2022-12-18T03:16:33;28.47;;;18.57;;
8889;SDS011;4481;43.406;24.454;2022-12-18T03:19:01;25.00;;;16.80;;
8889;SDS011;4481;43.406;24.454;2022-12-18T03:21:33;23.23;;;18.10;;
8889;SDS011;4481;43.406;24.454;2022-12-18T03:24:04;25.73;;;17.47;;
8889;SDS011;4481;43.406;24.454;2022-12-18T03:26:33;32.03;;;17.87;;
8889;SDS011;4481;43.406;24.454;2022-12-18T03:29:03;28.17;;;17.33;;
8889;SDS011;4481;43.406;24.454;2022-12-18T03:31:33;21.93;;;16.10;;
8889;SDS011;4481;43.406;24.454;2022-12-18T03:34:03;22.53;;;16.10;;
8889;SDS011;4481;43.406;24.454;2022-12-18T03:36:34;25.83;;;16.53;;
8889;SDS011;4481;43.406;24.454;2022-12-18T03:39:00;27.00;;;18.00;;
8889;SDS011;4481;43.406;24.454;2022-12-18T03:41:28;25.43;;;18.60;;
8889;SDS011;4481;43.406;24.454;2022-12-18T03:44:00;27.87;;;17.93;;
8889;SDS011;4481;43.406;24.454;2022-12-18T03:46:33;30.10;;;18.00;;
8889;SDS011;4481;43.406;24.454;2022-12-18T03:49:08;24.53;;;17.83;;
8889;SDS011;4481;43.406;24.454;2022-12-18T03:51:38;31.63;;;19.13;;
8889;SDS011;4481;43.406;24.454;2022-12-18T03:54:09;28.00;;;18.83;;
8889;SDS011;4481;43.406;24.454;2022-12-18T03:56:38;22.67;;;16.53;;
8889;SDS011;4481;43.406;24.454;2022-12-18T03:59:08;23.93;;;17.70;;
8889;SDS011;4481;43.406;24.454;2022-12-18T04:01:39;24.90;;;17.63;;
8889;SDS011;4481;43.406;24.454;2022-12-18T04:04:09;27.93;;;19.60;;
8889;SDS011;4481;43.406;24.454;2022-12-18T04:06:37;24.83;;;19.27;;
8889;SDS011;4481;43.406;24.454;2022-12-18T04:09:05;24.97;;;18.03;;
8889;SDS011;4481;43.406;24.454;2022-12-18T04:11:32;31.53;;;19.57;;
8889;SDS011;4481;43.406;24.454;2022-12-18T04:13:58;32.90;;;19.43;;
8889;SDS011;4481;43.406;24.454;2022-12-18T04:16:25;33.03;;;21.30;;
8889;SDS011;4481;43.406;24.454;2022-12-18T04:18:51;31.60;;;20.97;;
8889;SDS011;4481;43.406;24.454;2022-12-18T04:21:18;26.87;;;19.07;;
8889;SDS011;4481;43.406;24.454;2022-12-18T04:23:44;32.93;;;21.53;;
8889;SDS011;4481;43.406;24.454;2022-12-18T04:26:10;31.13;;;19.53;;
8889;SDS011;4481;43.406;24.454;2022-12-18T04:28:37;28.07;;;18.73;;
8889;SDS011;4481;43.406;24.454;2022-12-18T04:31:03;24.77;;;17.83;;
8889;SDS011;4481;43.406;24.454;2022-12-18T04:33:30;29.47;;;19.37;;
8889;SDS011;4481;43.406;24.454;2022-12-18T04:35:56;28.47;;;17.90;;
8889;SDS011;4481;43.406;24.454;2022-12-18T04:38:22;26.90;;;18.77;;
8889;SDS011;4481;43.406;24.454;2022-12-18T04:40:48;32.93;;;21.00;;
8889;SDS011;4481;43.406;24.454;2022-12-18T04:43:14;31.93;;;21.63;;
8889;SDS011;4481;43.406;24.454;2022-12-18T04:45:40;34.80;;;21.93;;
8889;SDS011;4481;43.406;24.454;2022-12-18T04:48:06;38.73;;;25.63;;
8889;SDS011;4481;43.406;24.454;2022-12-18T04:50:33;36.43;;;23.77;;
8889;SDS011;4481;43.406;24.454;2022-12-18T04:52:59;28.63;;;20.93;;
8889;SDS011;4481;43.406;24.454;2022-12-18T04:55:25;28.67;;;19.90;;
8889;SDS011;4481;43.406;24.454;2022-12-18T04:57:52;30.70;;;20.60;;
8889;SDS011;4481;43.406;24.454;2022-12-18T05:00:18;35.20;;;21.47;;
8889;SDS011;4481;43.406;24.454;2022-12-18T05:02:44;26.60;;;19.43;;
8889;SDS011;4481;43.406;24.454;2022-12-18T05:05:10;29.67;;;19.53;;
8889;SDS011;4481;43.406;24.454;2022-12-18T05:07:37;24.27;;;18.90;;
8889;SDS011;4481;43.406;24.454;2022-12-18T05:10:03;29.47;;;19.97;;
8889;SDS011;4481;43.406;24.454;2022-12-18T05:12:30;29.13;;;20.97;;
8889;SDS011;4481;43.406;24.454;2022-12-18T05:14:57;27.77;;;19.97;;
8889;SDS011;4481;43.406;24.454;2022-12-18T05:17:23;31.67;;;20.60;;
8889;SDS011;4481;43.406;24.454;2022-12-18T05:19:49;31.17;;;21.10;;
8889;SDS011;4481;43.406;24.454;2022-12-18T05:22:15;30.10;;;20.83;;
8889;SDS011;4481;43.406;24.454;2022-12-18T05:24:42;32.07;;;20.33;;
8889;SDS011;4481;43.406;24.454;2022-12-18T05:27:08;29.60;;;20.00;;
8889;SDS011;4481;43.406;24.454;2022-12-18T05:29:34;30.87;;;20.47;;
8889;SDS011;4481;43.406;24.454;2022-12-18T05:32:00;28.57;;;21.00;;
8889;SDS011;4481;43.406;24.454;2022-12-18T05:34:26;28.43;;;21.67;;
8889;SDS011;4481;43.406;24.454;2022-12-18T05:36:52;34.07;;;22.23;;
8889;SDS011;4481;43.406;24.454;2022-12-18T05:39:19;35.07;;;23.23;;
8889;SDS011;4481;43.406;24.454;2022-12-18T05:41:45;32.63;;;22.13;;
8889;SDS011;4481;43.406;24.454;2022-12-18T05:44:12;35.17;;;20.50;;
8889;SDS011;4481;43.406;24.454;2022-12-18T05:46:38;28.83;;;21.33;;
8889;SDS011;4481;43.406;24.454;2022-12-18T05:49:04;29.13;;;19.80;;
8889;SDS011;4481;43.406;24.454;2022-12-18T05:51:30;28.03;;;20.70;;
8889;SDS011;4481;43.406;24.454;2022-12-18T05:53:56;26.13;;;20.03;;
8889;SDS011;4481;43.406;24.454;2022-12-18T05:56:22;26.57;;;19.27;;
8889;SDS011;4481;43.406;24.454;2022-12-18T05:58:51;30.83;;;18.73;;
8889;SDS011;4481;43.406;24.454;2022-12-18T06:01:19;31.73;;;20.77;;
8889;SDS011;4481;43.406;24.454;2022-12-18T06:03:47;28.00;;;20.40;;
8889;SDS011;4481;43.406;24.454;2022-12-18T06:06:14;31.67;;;20.90;;
8889;SDS011;4481;43.406;24.454;2022-12-18T06:08:42;27.20;;;19.87;;
8889;SDS011;4481;43.406;24.454;2022-12-18T06:11:08;37.10;;;20.47;;
8889;SDS011;4481;43.406;24.454;2022-12-18T06:13:34;32.60;;;21.13;;
8889;SDS011;4481;43.406;24.454;2022-12-18T06:16:02;27.57;;;19.60;;
8889;SDS011;4481;43.406;24.454;2022-12-18T06:18:28;29.90;;;20.33;;
8889;SDS011;4481;43.406;24.454;2022-12-18T06:20:55;32.60;;;19.93;;
8889;SDS011;4481;43.406;24.454;2022-12-18T06:23:21;27.77;;;19.80;;
8889;SDS011;4481;43.406;24.454;2022-12-18T06:25:47;28.70;;;19.57;;
8889;SDS011;4481;43.406;24.454;2022-12-18T06:28:13;30.50;;;20.33;;
8889;SDS011;4481;43.406;24.454;2022-12-18T06:30:40;36.03;;;20.07;;
8889;SDS011;4481;43.406;24.454;2022-12-18T06:33:09;30.73;;;19.73;;
8889;SDS011;4481;43.406;24.454;2022-12-18T06:35:35;29.70;;;20.10;;
8889;SDS011;4481;43.406;24.454;2022-12-18T06:38:02;29.33;;;19.77;;
8889;SDS011;4481;43.406;24.454;2022-12-18T06:40:29;28.93;;;20.47;;
8889;SDS011;4481;43.406;24.454;2022-12-18T06:42:55;25.57;;;18.80;;
8889;SDS011;4481;43.406;24.454;2022-12-18T06:45:21;24.60;;;18.43;;
8889;SDS011;4481;43.406;24.454;2022-12-18T06:47:47;32.03;;;19.80;;
8889;SDS011;4481;43.406;24.454;2022-12-18T06:50:14;24.63;;;18.77;;
8889;SDS011;4481;43.406;24.454;2022-12-18T06:52:40;24.43;;;18.33;;
8889;SDS011;4481;43.406;24.454;2022-12-18T06:55:07;26.10;;;18.30;;
8889;SDS011;4481;43.406;24.454;2022-12-18T06:57:34;26.13;;;19.17;;
8889;SDS011;4481;43.406;24.454;2022-12-18T07:00:00;29.60;;;19.03;;
8889;SDS011;4481;43.406;24.454;2022-12-18T07:02:26;23.07;;;17.53;;
8889;SDS011;4481;43.406;24.454;2022-12-18T07:04:52;26.70;;;18.33;;
8889;SDS011;4481;43.406;24.454;2022-12-18T07:07:19;24.63;;;16.63;;
8889;SDS011;4481;43.406;24.454;2022-12-18T07:09:45;24.53;;;17.03;;
8889;SDS011;4481;43.406;24.454;2022-12-18T07:12:11;25.40;;;17.87;;
8889;SDS011;4481;43.406;24.454;2022-12-18T07:14:37;25.67;;;17.70;;
8889;SDS011;4481;43.406;24.454;2022-12-18T07:17:03;24.47;;;17.30;;
8889;SDS011;4481;43.406;24.454;2022-12-18T07:19:29;24.53;;;16.63;;
8889;SDS011;4481;43.406;24.454;2022-12-18T07:21:55;26.63;;;17.33;;
8889;SDS011;4481;43.406;24.454;2022-12-18T07:24:22;26.53;;;17.73;;
8889;SDS011;4481;43.406;24.454;2022-12-18T07:26:48;25.30;;;16.87;;
8889;SDS011;4481;43.406;24.454;2022-12-18T07:29:14;26.80;;;19.40;;
8889;SDS011;4481;43.406;24.454;2022-12-18T07:31:41;23.50;;;16.73;;
8889;SDS011;4481;43.406;24.454;2022-12-18T07:34:09;26.73;;;17.17;;
8889;SDS011;4481;43.406;24.454;2022-12-18T07:36:36;23.10;;;15.93;;
8889;SDS011;4481;43.406;24.454;2022-12-18T07:39:02;20.60;;;15.13;;
8889;SDS011;4481;43.406;24.454;2022-12-18T07:41:28;23.90;;;16.77;;
8889;SDS011;4481;43.406;24.454;2022-12-18T07:43:55;24.00;;;16.13;;
8889;SDS011;4481;43.406;24.454;2022-12-18T07:46:21;24.03;;;17.83;;
8889;SDS011;4481;43.406;24.454;2022-12-18T07:48:47;26.50;;;17.17;;
8889;SDS011;4481;43.406;24.454;2022-12-18T07:51:14;19.10;;;15.87;;
8889;SDS011;4481;43.406;24.454;2022-12-18T07:53:40;24.70;;;16.17;;
8889;SDS011;4481;43.406;24.454;2022-12-18T07:56:08;25.07;;;16.80;;
8889;SDS011;4481;43.406;24.454;2022-12-18T07:58:36;28.13;;;17.43;;
8889;SDS011;4481;43.406;24.454;2022-12-18T08:01:03;27.53;;;19.13;;
8889;SDS011;4481;43.406;24.454;2022-12-18T08:03:30;27.50;;;17.73;;
8889;SDS011;4481;43.406;24.454;2022-12-18T08:05:58;21.93;;;16.90;;
8889;SDS011;4481;43.406;24.454;2022-12-18T08:08:24;28.37;;;19.80;;
8889;SDS011;4481;43.406;24.454;2022-12-18T08:10:50;26.47;;;19.63;;
8889;SDS011;4481;43.406;24.454;2022-12-18T08:13:17;25.83;;;19.53;;
8889;SDS011;4481;43.406;24.454;2022-12-18T08:15:43;22.93;;;17.50;;
8889;SDS011;4481;43.406;24.454;2022-12-18T08:18:09;24.40;;;17.27;;
8889;SDS011;4481;43.406;24.454;2022-12-18T08:20:35;25.20;;;17.23;;
8889;SDS011;4481;43.406;24.454;2022-12-18T08:23:02;23.10;;;17.10;;
8889;SDS011;4481;43.406;24.454;2022-12-18T08:25:28;25.87;;;18.47;;
8889;SDS011;4481;43.406;24.454;2022-12-18T08:27:54;26.57;;;16.83;;
8889;SDS011;4481;43.406;24.454;2022-12-18T08:30:21;23.53;;;16.93;;
8889;SDS011;4481;43.406;24.454;2022-12-18T08:32:51;24.20;;;18.00;;
8889;SDS011;4481;43.406;24.454;2022-12-18T08:35:18;22.17;;;16.37;;
8889;SDS011;4481;43.406;24.454;2022-12-18T08:37:44;28.03;;;17.07;;
8889;SDS011;4481;43.406;24.454;2022-12-18T08:40:10;24.40;;;16.17;;
8889;SDS011;4481;43.406;24.454;2022-12-18T08:42:37;22.20;;;17.20;;
8889;SDS011;4481;43.406;24.454;2022-12-18T08:45:21;22.57;;;16.93;;
8889;SDS011;4481;43.406;24.454;2022-12-18T08:47:47;27.17;;;17.77;;
8889;SDS011;4481;43.406;24.454;2022-12-18T08:50:14;29.43;;;19.50;;
8889;SDS011;4481;43.406;24.454;2022-12-18T08:52:40;26.47;;;18.80;;
8889;SDS011;4481;43.406;24.454;2022-12-18T08:55:07;23.93;;;17.27;;
8889;SDS011;4481;43.406;24.454;2022-12-18T08:57:34;24.30;;;17.30;;
8889;SDS011;4481;43.406;24.454;2022-12-18T09:00:00;24.57;;;17.80;;
8889;SDS011;4481;43.406;24.454;2022-12-18T09:02:27;23.27;;;17.63;;
8889;SDS011;4481;43.406;24.454;2022-12-18T09:04:53;26.00;;;17.43;;
8889;SDS011;4481;43.406;24.454;2022-12-18T09:07:20;27.20;;;18.47;;
8889;SDS011;4481;43.406;24.454;2022-12-18T09:09:46;21.40;;;17.30;;
8889;SDS011;4481;43.406;24.454;2022-12-18T09:12:13;26.67;;;18.30;;
8889;SDS011;4481;43.406;24.454;2022-12-18T09:14:39;25.50;;;17.73;;
8889;SDS011;4481;43.406;24.454;2022-12-18T09:17:05;25.17;;;17.93;;
8889;SDS011;4481;43.406;24.454;2022-12-18T09:19:31;27.40;;;17.90;;
8889;SDS011;4481;43.406;24.454;2022-12-18T09:21:57;25.43;;;16.50;;
8889;SDS011;4481;43.406;24.454;2022-12-18T09:24:24;24.07;;;17.53;;
8889;SDS011;4481;43.406;24.454;2022-12-18T09:26:52;24.97;;;17.20;;
8889;SDS011;4481;43.406;24.454;2022-12-18T09:29:19;30.07;;;17.03;;
8889;SDS011;4481;43.406;24.454;2022-12-18T09:31:45;22.70;;;16.60;;
8889;SDS011;4481;43.406;24.454;2022-12-18T09:34:12;23.87;;;17.73;;
8889;SDS011;4481;43.406;24.454;2022-12-18T09:36:38;27.33;;;15.83;;
8889;SDS011;4481;43.406;24.454;2022-12-18T09:39:04;22.67;;;15.57;;
8889;SDS011;4481;43.406;24.454;2022-12-18T09:41:35;23.47;;;15.53;;
8889;SDS011;4481;43.406;24.454;2022-12-18T09:44:10;23.47;;;15.97;;
8889;SDS011;4481;43.406;24.454;2022-12-18T09:46:43;21.40;;;15.93;;
8889;SDS011;4481;43.406;24.454;2022-12-18T09:49:12;23.90;;;16.10;;
8889;SDS011;4481;43.406;24.454;2022-12-18T09:51:42;21.43;;;15.80;;
8889;SDS011;4481;43.406;24.454;2022-12-18T09:54:14;27.03;;;15.77;;
8889;SDS011;4481;43.406;24.454;2022-12-18T09:56:46;27.50;;;16.77;;
8889;SDS011;4481;43.406;24.454;2022-12-18T09:59:16;24.60;;;16.90;;
8889;SDS011;4481;43.406;24.454;2022-12-18T10:01:46;22.87;;;16.53;;
8889;SDS011;4481;43.406;24.454;2022-12-18T10:04:12;20.00;;;15.53;;
8889;SDS011;4481;43.406;24.454;2022-12-18T10:06:39;19.03;;;15.00;;
8889;SDS011;4481;43.406;24.454;2022-12-18T10:09:13;23.07;;;15.43;;
8889;SDS011;4481;43.406;24.454;2022-12-18T10:11:48;22.93;;;15.23;;
8889;SDS011;4481;43.406;24.454;2022-12-18T10:14:26;24.03;;;16.13;;
8889;SDS011;4481;43.406;24.454;2022-12-18T10:16:59;27.27;;;16.90;;
8889;SDS011;4481;43.406;24.454;2022-12-18T10:19:35;22.70;;;17.23;;
8889;SDS011;4481;43.406;24.454;2022-12-18T10:22:10;31.07;;;20.23;;
8889;SDS011;4481;43.406;24.454;2022-12-18T10:24:44;34.50;;;20.53;;
8889;SDS011;4481;43.406;24.454;2022-12-18T10:27:22;78.47;;;48.30;;
8889;SDS011;4481;43.406;24.454;2022-12-18T10:29:50;37.57;;;25.53;;
8889;SDS011;4481;43.406;24.454;2022-12-18T10:32:17;37.50;;;26.10;;
8889;SDS011;4481;43.406;24.454;2022-12-18T10:34:45;25.57;;;17.43;;
8889;SDS011;4481;43.406;24.454;2022-12-18T10:37:14;23.77;;;15.73;;
8889;SDS011;4481;43.406;24.454;2022-12-18T10:39:42;28.93;;;20.50;;
8889;SDS011;4481;43.406;24.454;2022-12-18T10:42:09;31.60;;;20.90;;
8889;SDS011;4481;43.406;24.454;2022-12-18T10:44:38;26.43;;;18.00;;
8889;SDS011;4481;43.406;24.454;2022-12-18T10:47:05;24.60;;;15.50;;
8889;SDS011;4481;43.406;24.454;2022-12-18T10:49:36;28.23;;;17.40;;
8889;SDS011;4481;43.406;24.454;2022-12-18T10:52:11;28.73;;;19.57;;
8889;SDS011;4481;43.406;24.454;2022-12-18T10:54:45;24.97;;;17.83;;
8889;SDS011;4481;43.406;24.454;2022-12-18T10:57:14;30.47;;;20.23;;
8889;SDS011;4481;43.406;24.454;2022-12-18T10:59:50;24.87;;;16.03;;
8889;SDS011;4481;43.406;24.454;2022-12-18T11:02:24;25.83;;;16.97;;
8889;SDS011;4481;43.406;24.454;2022-12-18T11:04:52;26.27;;;17.43;;
8889;SDS011;4481;43.406;24.454;2022-12-18T11:07:18;23.60;;;18.00;;
8889;SDS011;4481;43.406;24.454;2022-12-18T11:09:45;20.17;;;14.33;;
8889;SDS011;4481;43.406;24.454;2022-12-18T11:12:25;23.87;;;16.60;;
8889;SDS011;4481;43.406;24.454;2022-12-18T11:14:55;22.00;;;15.97;;
8889;SDS011;4481;43.406;24.454;2022-12-18T11:17:25;20.00;;;12.33;;
8889;SDS011;4481;43.406;24.454;2022-12-18T11:19:55;17.23;;;11.73;;
8889;SDS011;4481;43.406;24.454;2022-12-18T11:22:23;18.20;;;12.37;;
8889;SDS011;4481;43.406;24.454;2022-12-18T11:24:53;18.83;;;11.53;;
8889;SDS011;4481;43.406;24.454;2022-12-18T11:27:22;17.27;;;12.63;;
8889;SDS011;4481;43.406;24.454;2022-12-18T11:29:49;16.10;;;11.57;;
8889;SDS011;4481;43.406;24.454;2022-12-18T11:32:29;16.47;;;10.87;;
8889;SDS011;4481;43.406;24.454;2022-12-18T11:35:01;15.73;;;11.17;;
8889;SDS011;4481;43.406;24.454;2022-12-18T11:37:32;16.93;;;12.33;;
8889;SDS011;4481;43.406;24.454;2022-12-18T11:40:00;18.50;;;11.93;;
8889;SDS011;4481;43.406;24.454;2022-12-18T11:42:34;20.20;;;12.83;;
8889;SDS011;4481;43.406;24.454;2022-12-18T11:45:08;22.73;;;15.07;;
8889;SDS011;4481;43.406;24.454;2022-12-18T11:47:49;18.83;;;12.97;;
8889;SDS011;4481;43.406;24.454;2022-12-18T11:50:23;18.73;;;13.97;;
8889;SDS011;4481;43.406;24.454;2022-12-18T11:52:53;19.13;;;14.93;;
8889;SDS011;4481;43.406;24.454;2022-12-18T11:55:26;23.63;;;14.43;;
8889;SDS011;4481;43.406;24.454;2022-12-18T11:57:58;21.37;;;13.77;;
8889;SDS011;4481;43.406;24.454;2022-12-18T12:00:31;23.70;;;14.50;;
8889;SDS011;4481;43.406;24.454;2022-12-18T12:03:09;22.33;;;13.97;;
8889;SDS011;4481;43.406;24.454;2022-12-18T12:06:06;20.67;;;13.47;;
8889;SDS011;4481;43.406;24.454;2022-12-18T12:08:42;22.37;;;13.90;;
8889;SDS011;4481;43.406;24.454;2022-12-18T12:11:19;22.77;;;12.00;;
8889;SDS011;4481;43.406;24.454;2022-12-18T12:14:00;19.13;;;12.03;;
8889;SDS011;4481;43.406;24.454;2022-12-18T12:16:41;16.13;;;11.60;;
8889;SDS011;4481;43.406;24.454;2022-12-18T12:19:20;21.50;;;12.43;;
8889;SDS011;4481;43.406;24.454;2022-12-18T12:21:58;16.17;;;11.67;;
8889;SDS011;4481;43.406;24.454;2022-12-18T12:24:37;20.10;;;14.03;;
8889;SDS011;4481;43.406;24.454;2022-12-18T12:27:18;20.57;;;14.13;;
8889;SDS011;4481;43.406;24.454;2022-12-18T12:29:55;18.43;;;11.53;;
8889;SDS011;4481;43.406;24.454;2022-12-18T12:32:33;21.43;;;13.27;;
8889;SDS011;4481;43.406;24.454;2022-12-18T12:35:15;23.97;;;15.70;;
8889;SDS011;4481;43.406;24.454;2022-12-18T12:37:57;20.87;;;13.77;;
8889;SDS011;4481;43.406;24.454;2022-12-18T12:40:32;20.80;;;14.43;;
8889;SDS011;4481;43.406;24.454;2022-12-18T12:43:01;19.03;;;12.13;;
8889;SDS011;4481;43.406;24.454;2022-12-18T12:45:40;24.80;;;13.20;;
8889;SDS011;4481;43.406;24.454;2022-12-18T12:48:14;19.10;;;11.10;;
8889;SDS011;4481;43.406;24.454;2022-12-18T12:50:47;18.37;;;13.47;;
8889;SDS011;4481;43.406;24.454;2022-12-18T12:53:19;19.50;;;13.47;;
8889;SDS011;4481;43.406;24.454;2022-12-18T12:55:50;17.83;;;11.87;;
8889;SDS011;4481;43.406;24.454;2022-12-18T12:58:19;17.33;;;11.87;;
8889;SDS011;4481;43.406;24.454;2022-12-18T13:00:53;18.23;;;11.17;;
8889;SDS011;4481;43.406;24.454;2022-12-18T13:03:28;15.83;;;10.47;;
8889;SDS011;4481;43.406;24.454;2022-12-18T13:06:04;18.33;;;11.33;;
8889;SDS011;4481;43.406;24.454;2022-12-18T13:08:51;17.57;;;10.40;;
8889;SDS011;4481;43.406;24.454;2022-12-18T13:11:28;18.20;;;11.23;;
8889;SDS011;4481;43.406;24.454;2022-12-18T13:14:27;16.63;;;10.93;;
8889;SDS011;4481;43.406;24.454;2022-12-18T13:17:24;18.53;;;11.00;;
8889;SDS011;4481;43.406;24.454;2022-12-18T13:20:04;21.13;;;11.37;;
8889;SDS011;4481;43.406;24.454;2022-12-18T13:22:34;17.23;;;11.87;;
8889;SDS011;4481;43.406;24.454;2022-12-18T13:25:02;15.67;;;9.80;;
8889;SDS011;4481;43.406;24.454;2022-12-18T13:28:04;14.37;;;10.40;;
8889;SDS011;4481;43.406;24.454;2022-12-18T13:30:48;16.33;;;10.47;;
8889;SDS011;4481;43.406;24.454;2022-12-18T13:45:40;16.97;;;11.10;;
8889;SDS011;4481;43.406;24.454;2022-12-18T13:48:17;16.97;;;10.90;;
8889;SDS011;4481;43.406;24.454;2022-12-18T13:50:48;19.77;;;11.87;;
8889;SDS011;4481;43.406;24.454;2022-12-18T13:53:19;18.17;;;11.63;;
8889;SDS011;4481;43.406;24.454;2022-12-18T13:55:49;19.33;;;11.50;;
8889;SDS011;4481;43.406;24.454;2022-12-18T13:58:16;16.63;;;11.03;;
8889;SDS011;4481;43.406;24.454;2022-12-18T14:00:42;17.77;;;10.97;;
8889;SDS011;4481;43.406;24.454;2022-12-18T14:03:15;16.80;;;12.07;;
8889;SDS011;4481;43.406;24.454;2022-12-18T14:05:44;17.27;;;11.67;;
8889;SDS011;4481;43.406;24.454;2022-12-18T14:08:12;19.90;;;12.73;;
8889;SDS011;4481;43.406;24.454;2022-12-18T14:10:40;17.90;;;11.60;;
8889;SDS011;4481;43.406;24.454;2022-12-18T14:13:08;18.80;;;12.10;;
8889;SDS011;4481;43.406;24.454;2022-12-18T14:15:40;17.13;;;12.07;;
8889;SDS011;4481;43.406;24.454;2022-12-18T14:18:13;22.47;;;12.17;;
8889;SDS011;4481;43.406;24.454;2022-12-18T14:20:46;15.00;;;10.90;;
8889;SDS011;4481;43.406;24.454;2022-12-18T14:23:24;16.17;;;11.53;;
8889;SDS011;4481;43.406;24.454;2022-12-18T14:25:52;18.87;;;11.93;;
8889;SDS011;4481;43.406;24.454;2022-12-18T14:28:19;19.10;;;11.57;;
8889;SDS011;4481;43.406;24.454;2022-12-18T14:30:47;18.63;;;12.27;;
8889;SDS011;4481;43.406;24.454;2022-12-18T14:33:14;19.03;;;12.43;;
8889;SDS011;4481;43.406;24.454;2022-12-18T14:35:43;20.20;;;12.73;;
8889;SDS011;4481;43.406;24.454;2022-12-18T14:38:21;19.77;;;13.67;;
8889;SDS011;4481;43.406;24.454;2022-12-18T14:40:51;22.13;;;14.87;;
8889;SDS011;4481;43.406;24.454;2022-12-18T14:43:19;23.23;;;15.47;;
8889;SDS011;4481;43.406;24.454;2022-12-18T14:45:46;18.67;;;13.27;;
8889;SDS011;4481;43.406;24.454;2022-12-18T14:48:14;19.37;;;14.00;;
8889;SDS011;4481;43.406;24.454;2022-12-18T14:50:42;25.40;;;17.47;;
8889;SDS011;4481;43.406;24.454;2022-12-18T14:53:18;29.83;;;17.57;;
8889;SDS011;4481;43.406;24.454;2022-12-18T14:55:46;36.23;;;20.63;;
8889;SDS011;4481;43.406;24.454;2022-12-18T14:58:13;35.73;;;21.80;;
8889;SDS011;4481;43.406;24.454;2022-12-18T15:00:42;28.70;;;17.97;;